| time (UTC) | temp C | wind direction | speed KPH | gust KPH | rain 1hr cm | rain 24hr cm | rain mn cm | humidity % | barometer mb |
| 20260502210009 | 17 | 32 | 0.0 | 0.0 | 0.00 | 0.00 | 0.00 | 82 | 1019.4 |
| 20260502204508 | 18 | 32 | 0.0 | 3.2 | 0.00 | 0.00 | 0.00 | 81 | 1019.3 |
| 20260502203018 | 18 | 32 | 0.0 | 0.0 | 0.00 | 0.00 | 0.00 | 81 | 1019.4 |
| 20260502201531 | 18 | 32 | 0.0 | 3.2 | 0.00 | 0.00 | 0.00 | 80 | 1019.3 |
| 20260502200023 | 18 | 32 | 1.6 | 3.2 | 0.00 | 0.00 | 0.00 | 80 | 1019.2 |
| 20260502194533 | 18 | 352 | 0.0 | 3.2 | 0.00 | 0.00 | 0.00 | 79 | 1019.1 |
| 20260502193012 | 19 | 25 | 3.2 | 6.4 | 0.00 | 0.00 | 0.00 | 79 | 1019.0 |
| 20260502191512 | 19 | 15 | 0.0 | 6.4 | 0.00 | 0.00 | 0.00 | 77 | 1018.9 |
| 20260502190009 | 19 | 5 | 3.2 | 6.4 | 0.00 | 0.00 | 0.00 | 78 | 1018.9 |
| 20260502184512 | 20 | 352 | 4.8 | 8.0 | 0.00 | 0.00 | 0.00 | 76 | 1018.8 |
| 20260502183012 | 20 | 20 | 4.8 | 9.7 | 0.00 | 0.00 | 0.00 | 76 | 1018.8 |
| 20260502181513 | 21 | 5 | 4.8 | 11.3 | 0.00 | 0.00 | 0.00 | 73 | 1019.0 |
| 20260502163021 | 21 | 349 | 4.8 | 11.3 | 0.00 | 0.00 | 0.00 | 72 | 1019.0 |
| 20260502161513 | 22 | 5 | 8.0 | 12.9 | 0.00 | 0.00 | 0.00 | 72 | 1019.2 |
| 20260502151510 | 23 | 340 | 9.7 | 17.7 | 0.00 | 0.00 | 0.00 | 69 | 1019.3 |
| 20260502123017 | 23 | 19 | 12.9 | 24.1 | 0.00 | 0.00 | 0.00 | 69 | 1019.9 |
| 20260502121519 | 22 | 360 | 16.1 | 22.5 | 0.00 | 0.00 | 0.00 | 72 | 1019.9 |
| 20260502114515 | 23 | 25 | 14.5 | 24.1 | 0.00 | 0.00 | 0.00 | 70 | 1020.1 |
| 20260502113020 | 22 | 21 | 14.5 | 22.5 | 0.00 | 0.00 | 0.00 | 72 | 1020.2 |
| 20260502111521 | 22 | 5 | 14.5 | 22.5 | 0.00 | 0.00 | 0.00 | 71 | 1020.2 |
| 20260502110019 | 22 | 14 | 11.3 | 17.7 | 0.00 | 0.00 | 0.00 | 73 | 1020.2 |
| 20260502104520 | 22 | 350 | 9.7 | 20.9 | 0.00 | 0.00 | 0.00 | 72 | 1020.0 |
| 20260502103017 | 22 | 20 | 12.9 | 20.9 | 0.00 | 0.00 | 0.00 | 73 | 1020.1 |
| 20260502101503 | 22 | 347 | 9.7 | 16.1 | 0.00 | 0.00 | 0.00 | 72 | 1020.1 |
| 20260502091504 | 21 | 44 | 6.4 | 12.9 | 0.00 | 0.00 | 0.00 | 74 | 1020.1 |
| 20260502071520 | 16 | 165 | 4.8 | 8.0 | 0.00 | 0.00 | 0.00 | 84 | 1019.5 |
| 20260502070025 | 16 | 148 | 6.4 | 8.0 | 0.00 | 0.00 | 0.00 | 84 | 1019.5 |
| 20260502064514 | 16 | 173 | 4.8 | 9.7 | 0.00 | 0.00 | 0.00 | 85 | 1019.3 |
| 20260502063014 | 16 | 138 | 3.2 | 4.8 | 0.00 | 0.00 | 0.00 | 86 | 1019.4 |
| 20260502061514 | 16 | 198 | 1.6 | 4.8 | 0.00 | 0.00 | 0.00 | 84 | 1019.4 |
| 20260502060014 | 16 | 189 | 3.2 | 4.8 | 0.00 | 0.00 | 0.00 | 84 | 1019.5 |
| 20260502054524 | 16 | 215 | 3.2 | 4.8 | 0.00 | 0.00 | 0.00 | 84 | 1019.4 |
| 20260502053008 | 17 | 234 | 3.2 | 4.8 | 0.00 | 0.00 | 0.00 | 84 | 1019.4 |
| 20260502051517 | 16 | 234 | 3.2 | 4.8 | 0.00 | 0.00 | 0.00 | 85 | 1019.3 |
| 20260502050020 | 16 | 126 | 0.0 | 3.2 | 0.00 | 0.00 | 0.00 | 85 | 1019.1 |
| 20260502044516 | 16 | 178 | 1.6 | 4.8 | 0.00 | 0.00 | 0.00 | 85 | 1018.9 |
| 20260502043008 | 16 | 177 | 1.6 | 6.4 | 0.00 | 0.00 | 0.00 | 85 | 1018.8 |
| 20260502041512 | 16 | 144 | 4.8 | 6.4 | 0.00 | 0.00 | 0.00 | 85 | 1018.8 |
| 20260502040009 | 16 | 145 | 4.8 | 6.4 | 0.00 | 0.00 | 0.00 | 85 | 1018.9 |
| 20260502034534 | 16 | 171 | 1.6 | 3.2 | 0.00 | 0.00 | 0.00 | 86 | 1019.0 |
| 20260502033022 | 16 | 219 | 0.0 | 4.8 | 0.00 | 0.00 | 0.00 | 85 | 1019.1 |
| 20260502031512 | 16 | 217 | 1.6 | 4.8 | 0.00 | 0.00 | 0.00 | 86 | 1019.1 |
| 20260502030014 | 16 | 221 | 1.6 | 3.2 | 0.00 | 0.00 | 0.00 | 85 | 1019.1 |
| 20260502024518 | 16 | 51 | 0.0 | 3.2 | 0.00 | 0.00 | 0.00 | 85 | 1019.1 |
| 20260502021524 | 16 | 45 | 0.0 | 3.2 | 0.00 | 0.00 | 0.00 | 84 | 1019.4 |
| 20260502020016 | 17 | 45 | 0.0 | 3.2 | 0.00 | 0.00 | 0.00 | 83 | 1019.5 |
| 20260502014544 | 17 | 161 | 0.0 | 3.2 | 0.00 | 0.00 | 0.00 | 83 | 1019.6 |
| 20260502013021 | 17 | 193 | 3.2 | 4.8 | 0.00 | 0.00 | 0.00 | 82 | 1019.9 |
| 20260502011516 | 17 | 188 | 3.2 | 4.8 | 0.00 | 0.00 | 0.00 | 83 | 1020.2 |
| 20260502004514 | 17 | 176 | 3.2 | 6.4 | 0.00 | 0.00 | 0.00 | 82 | 1020.5 |
| 20260502003003 | 17 | 155 | 3.2 | 6.4 | 0.00 | 0.00 | 0.00 | 82 | 1020.6 |
| 20260502001515 | 17 | 169 | 3.2 | 6.4 | 0.00 | 0.00 | 0.00 | 82 | 1020.9 |
| 20260502000032 | 17 | 165 | 1.6 | 3.2 | 0.00 | 0.00 | 0.00 | 82 | 1021.0 |
| 20260501234503 | 17 | 165 | 1.6 | 3.2 | 0.00 | 0.00 | 0.00 | 81 | 1021.2 |
| 20260501233003 | 17 | 168 | 3.2 | 6.4 | 0.00 | 0.00 | 0.00 | 82 | 1021.1 |
| 20260501231516 | 17 | 173 | 3.2 | 8.0 | 0.00 | 0.00 | 0.00 | 81 | 1021.0 |
| 20260501230010 | 17 | 163 | 4.8 | 8.0 | 0.00 | 0.00 | 0.00 | 81 | 1020.9 |
| 20260501224515 | 17 | 171 | 1.6 | 4.8 | 0.00 | 0.00 | 0.00 | 81 | 1021.1 |
| 20260501223010 | 17 | 173 | 4.8 | 6.4 | 0.00 | 0.00 | 0.00 | 80 | 1021.0 |
| 20260501221509 | 17 | 153 | 0.0 | 8.0 | 0.00 | 0.00 | 0.00 | 80 | 1020.8 |
| 20260501220012 | 17 | 148 | 3.2 | 8.0 | 0.00 | 0.00 | 0.00 | 79 | 1020.7 |
| 20260501214513 | 17 | 174 | 4.8 | 8.0 | 0.00 | 0.00 | 0.00 | 79 | 1020.6 |
| 20260501213017 | 17 | 54 | 0.0 | 3.2 | 0.00 | 0.00 | 0.00 | 81 | 1020.5 |
| 20260501211515 | 17 | 54 | 0.0 | 3.2 | 0.00 | 0.00 | 0.00 | 81 | 1020.4 |